Time;durP1;ratioP1;P1;durP2;ratioP2;P2;SDS_P1;SDS_P2;PMS_P1;PMS_P2;Temp;Humidity;BMP_temperature;BMP_pressure;BME280_temperature;BME280_humidity;BME280_pressure;Samples;Min_cycle;Max_cycle;Signal;HPM_P1;HPM_P2
2020/12/06 00:01:50;;;;;;;74.20;43.27;;;;;;;-2.24;89.56;93349.04;1734082;81;22228;-79
2020/12/06 00:04:21;;;;;;;90.67;46.03;;;;;;;-2.27;89.59;93356.33;1791050;79;21267;-81
2020/12/06 00:06:49;;;;;;;89.83;49.57;;;;;;;-2.26;89.63;93352.55;1775553;80;21188;-80
2020/12/06 00:09:18;;;;;;;80.67;41.90;;;;;;;-2.26;89.37;93357.36;1801761;79;21171;-79
2020/12/06 00:11:46;;;;;;;34.47;20.63;;;;;;;-2.35;89.30;93360.56;1807668;79;21167;-81
2020/12/06 00:14:14;;;;;;;36.23;21.00;;;;;;;-2.35;89.89;93367.22;1787383;79;21619;-79
2020/12/06 00:16:42;;;;;;;29.90;16.20;;;;;;;-2.33;90.10;93362.37;1804651;79;21199;-79
2020/12/06 00:19:11;;;;;;;18.70;11.70;;;;;;;-2.27;90.30;93365.64;1765705;81;21187;-84
2020/12/06 00:21:39;;;;;;;22.03;11.73;;;;;;;-2.25;90.05;93370.90;1749945;82;21207;-84
2020/12/06 00:24:07;;;;;;;26.13;16.00;;;;;;;-2.28;90.04;93367.53;1814253;78;21167;-81
2020/12/06 00:26:35;;;;;;;49.83;27.30;;;;;;;-2.28;90.07;93370.20;1743808;80;21183;-83
2020/12/06 00:29:03;;;;;;;57.43;29.63;;;;;;;-2.29;90.10;93365.97;1725835;82;21167;-80
2020/12/06 00:31:32;;;;;;;51.23;28.97;;;;;;;-2.34;90.01;93362.13;1716039;81;21176;-81
2020/12/06 00:34:00;;;;;;;55.60;29.23;;;;;;;-2.36;89.79;93370.22;1728020;83;21698;-80
2020/12/06 00:36:29;;;;;;;60.97;32.40;;;;;;;-2.39;89.78;93373.50;1752817;81;21299;-80
2020/12/06 00:38:57;;;;;;;56.47;30.07;;;;;;;-2.41;89.74;93370.36;1784738;79;21155;-81
2020/12/06 00:41:25;;;;;;;56.90;30.27;;;;;;;-2.44;89.67;93369.13;1794168;79;21183;-80
2020/12/06 00:43:53;;;;;;;49.60;28.93;;;;;;;-2.46;89.91;93371.31;1770322;80;21187;-80
2020/12/06 00:46:22;;;;;;;47.10;27.63;;;;;;;-2.42;90.08;93358.92;1790387;80;21186;-80
2020/12/06 00:48:51;;;;;;;58.17;30.70;;;;;;;-2.39;90.17;93360.97;1738721;82;21191;-84
2020/12/06 00:51:19;;;;;;;33.60;17.50;;;;;;;-2.36;90.02;93363.00;1819359;78;21630;-80
2020/12/06 00:53:48;;;;;;;21.70;13.13;;;;;;;-2.37;89.62;93348.13;1781717;78;21149;-80
2020/12/06 00:56:18;;;;;;;21.53;13.07;;;;;;;-2.43;89.56;93350.70;1799403;79;21588;-79
2020/12/06 00:58:47;;;;;;;48.53;26.47;;;;;;;-2.45;89.60;93356.89;1767452;79;21122;-82
2020/12/06 01:01:15;;;;;;;;;;;;;;;;;;;;;
2020/12/06 01:03:45;;;;;;;52.63;31.03;;;;;;;-2.54;89.65;93355.57;1729563;82;21210;-81
2020/12/06 01:06:16;;;;;;;67.40;36.67;;;;;;;-2.56;90.06;93351.65;1745506;80;21183;-81
2020/12/06 01:08:44;;;;;;;67.60;37.60;;;;;;;-2.51;90.45;93346.18;1773872;79;21172;-81
2020/12/06 01:11:13;;;;;;;58.90;34.33;;;;;;;-2.47;90.18;93349.23;1812154;78;21135;-81
2020/12/06 01:13:42;;;;;;;29.80;18.03;;;;;;;-2.49;89.93;93348.74;1747515;79;21382;-83
2020/12/06 01:16:14;;;;;;;28.60;16.37;;;;;;;-2.52;90.35;93341.93;1754940;81;21980;-80
2020/12/06 01:18:42;;;;;;;53.33;28.40;;;;;;;-2.48;90.82;93346.34;1774397;80;22411;-81
2020/12/06 01:21:11;;;;;;;44.60;24.20;;;;;;;-2.45;90.79;93343.02;1754437;80;21185;-82
2020/12/06 01:23:39;;;;;;;51.00;30.60;;;;;;;-2.45;90.45;93340.91;1781133;80;21656;-82
2020/12/06 01:26:11;;;;;;;56.20;31.43;;;;;;;-2.46;90.41;93334.02;1812419;78;21116;-81
2020/12/06 01:28:39;;;;;;;49.87;29.57;;;;;;;-2.45;90.19;93338.25;1723389;81;21396;-83
2020/12/06 01:31:08;;;;;;;43.13;25.57;;;;;;;-2.43;90.12;93343.27;1786430;80;21158;-81
2020/12/06 01:33:36;;;;;;;20.33;12.63;;;;;;;-2.40;90.01;93335.99;1801535;79;21147;-82
2020/12/06 01:36:04;;;;;;;30.87;17.27;;;;;;;-2.40;89.64;93335.44;1804430;78;21167;-80
2020/12/06 01:38:33;;;;;;;20.27;11.43;;;;;;;-2.44;89.56;93341.16;1772695;79;21149;-83
2020/12/06 01:41:01;;;;;;;17.07;10.17;;;;;;;-2.44;89.69;93337.17;1821115;77;21142;-83
2020/12/06 01:43:30;;;;;;;12.57;7.90;;;;;;;-2.45;89.42;93340.91;1703062;82;21497;-83
2020/12/06 01:45:58;;;;;;;35.00;19.70;;;;;;;-2.51;89.12;93342.19;1789287;79;21151;-81
2020/12/06 01:48:26;;;;;;;48.10;26.93;;;;;;;-2.59;88.89;93342.98;1754864;80;21174;-85
2020/12/06 01:50:54;;;;;;;57.33;32.33;;;;;;;-2.68;88.94;93341.63;1744914;80;21551;-81
2020/12/06 01:53:23;;;;;;;46.97;27.57;;;;;;;-2.76;89.05;93341.88;1723194;80;21606;-83
2020/12/06 01:55:51;;;;;;;27.87;17.20;;;;;;;-2.78;89.18;93349.41;1746949;79;21171;-81
2020/12/06 01:58:19;;;;;;;16.17;9.50;;;;;;;-2.80;89.21;93352.13;1773337;80;21072;-79
2020/12/06 02:00:47;;;;;;;9.73;6.10;;;;;;;-2.81;89.56;93349.24;1802841;78;21147;-83
2020/12/06 02:03:15;;;;;;;8.83;6.17;;;;;;;-2.78;89.94;93349.95;1795779;79;21702;-81
2020/12/06 02:05:43;;;;;;;57.33;30.20;;;;;;;-2.78;90.07;93349.41;1798084;79;21188;-81
2020/12/06 02:08:11;;;;;;;24.50;14.77;;;;;;;-2.79;89.79;93354.47;1768770;79;21298;-81
2020/12/06 02:10:41;;;;;;;20.13;11.80;;;;;;;-2.78;89.62;93358.72;1834889;77;21175;-83
2020/12/06 02:13:10;;;;;;;17.70;10.70;;;;;;;-2.78;89.34;93357.39;1754733;80;21163;-80
2020/12/06 02:15:39;;;;;;;18.10;10.93;;;;;;;-2.80;89.39;93357.45;1763794;80;21130;-81
2020/12/06 02:18:07;;;;;;;41.40;23.47;;;;;;;-2.79;89.50;93356.34;1776685;80;21202;-83
2020/12/06 02:20:35;;;;;;;30.53;16.63;;;;;;;-2.77;89.31;93355.50;1769143;81;21120;-85
2020/12/06 02:23:05;;;;;;;19.83;11.13;;;;;;;-2.78;89.16;93348.07;1755113;79;21381;-82
2020/12/06 02:25:36;;;;;;;42.97;24.93;;;;;;;-2.80;89.14;93355.57;1766229;81;21124;-81
2020/12/06 02:28:05;;;;;;;39.57;23.50;;;;;;;-2.79;89.15;93361.67;1765093;80;21270;-82
2020/12/06 02:30:34;;;;;;;34.03;19.43;;;;;;;-2.80;89.08;93367.55;1761418;80;21190;-82
2020/12/06 02:33:04;;;;;;;45.27;25.70;;;;;;;-2.78;89.34;93357.39;1777612;79;21172;-84
2020/12/06 02:35:32;;;;;;;50.43;26.60;;;;;;;-2.80;89.12;93356.13;1729672;81;21200;-82
2020/12/06 02:38:01;;;;;;;40.50;21.87;;;;;;;-2.85;88.90;93356.29;1727869;81;21143;-82
2020/12/06 02:40:29;;;;;;;35.73;19.47;;;;;;;-2.90;88.59;93352.43;1746881;82;21080;-85
2020/12/06 02:42:57;;;;;;;39.67;21.83;;;;;;;-2.96;88.52;93345.94;1791454;79;21204;-85
2020/12/06 02:45:26;;;;;;;38.77;20.30;;;;;;;-3.02;88.51;93345.06;1774477;79;21179;-82
2020/12/06 02:47:54;;;;;;;24.60;16.10;;;;;;;-3.07;88.73;93346.56;1771200;78;21121;-85
2020/12/06 02:50:22;;;;;;;32.77;17.77;;;;;;;-3.08;88.99;93351.09;1800933;78;21190;-82
2020/12/06 02:52:51;;;;;;;39.53;22.40;;;;;;;-3.07;89.04;93351.88;1796889;79;21272;-83
2020/12/06 02:55:20;;;;;;;30.13;17.10;;;;;;;-3.08;88.86;93350.32;1810664;79;21192;-82
2020/12/06 02:57:49;;;;;;;25.20;14.30;;;;;;;-3.09;88.99;93352.72;1777698;80;21631;-82
2020/12/06 03:00:17;;;;;;;17.63;9.83;;;;;;;-3.11;89.14;93347.73;1759240;80;21179;-83
2020/12/06 03:02:45;;;;;;;11.83;8.00;;;;;;;-3.12;89.22;93336.86;1745235;81;21659;-81
2020/12/06 03:05:13;;;;;;;11.10;7.03;;;;;;;-3.15;89.60;93335.36;1710247;82;21145;-82
2020/12/06 03:07:42;;;;;;;17.43;9.93;;;;;;;-3.12;90.11;93334.72;1744447;82;21218;-82
2020/12/06 03:10:10;;;;;;;10.87;7.63;;;;;;;-3.06;90.09;93332.94;1720077;81;21174;-84
2020/12/06 03:12:39;;;;;;;19.47;12.27;;;;;;;-3.00;90.07;93334.36;1777906;79;21029;-81
2020/12/06 03:15:07;;;;;;;38.90;21.47;;;;;;;-2.99;89.90;93333.25;1802509;79;21060;-81
2020/12/06 03:17:35;;;;;;;38.13;21.37;;;;;;;-2.97;89.77;93333.73;1802435;79;21112;-85
2020/12/06 03:20:03;;;;;;;40.27;24.17;;;;;;;-2.96;89.58;93332.64;1769364;80;21645;-81
2020/12/06 03:22:34;;;;;;;39.20;21.13;;;;;;;-2.97;89.37;93334.27;1767051;80;21180;-81
2020/12/06 03:25:03;;;;;;;48.10;24.97;;;;;;;-3.00;89.26;93329.04;1773664;79;21209;-84
2020/12/06 03:27:31;;;;;;;47.20;26.40;;;;;;;-3.04;89.03;93335.30;1764940;80;21182;-83
2020/12/06 03:29:59;;;;;;;39.47;23.37;;;;;;;-3.08;88.99;93330.37;1772520;80;21180;-82
2020/12/06 03:32:27;;;;;;;34.20;17.90;;;;;;;-3.07;88.94;93329.27;1765537;81;21422;-83
2020/12/06 03:34:56;;;;;;;17.87;12.73;;;;;;;-3.10;88.90;93326.67;1739550;81;21630;-83
2020/12/06 03:37:24;;;;;;;16.63;8.90;;;;;;;-3.10;89.19;93331.22;1737709;81;21268;-85
2020/12/06 03:39:53;;;;;;;23.33;14.33;;;;;;;-3.09;89.64;93334.88;1730743;82;21644;-84
2020/12/06 03:42:21;;;;;;;44.23;22.73;;;;;;;-3.03;89.87;93339.52;1747349;80;21164;-82
2020/12/06 03:44:49;;;;;;;67.87;32.77;;;;;;;-2.97;89.81;93338.25;1760449;81;22074;-84
2020/12/06 03:47:17;;;;;;;42.97;22.03;;;;;;;-2.91;89.96;93337.02;1714968;82;21155;-83
2020/12/06 03:49:45;;;;;;;51.77;25.07;;;;;;;-2.87;89.91;93337.17;1748745;82;21670;-85
2020/12/06 03:52:13;;;;;;;63.53;32.70;;;;;;;-2.83;90.26;93340.22;1777041;78;21198;-82
2020/12/06 03:54:42;;;;;;;45.30;23.87;;;;;;;-2.77;90.28;93340.31;1785891;79;21228;-82
2020/12/06 03:57:10;;;;;;;18.00;11.27;;;;;;;-2.77;89.54;93340.31;1715424;82;21637;-84
2020/12/06 03:59:38;;;;;;;17.07;10.10;;;;;;;-2.86;88.65;93338.19;1805253;78;21385;-83
2020/12/06 04:02:07;;;;;;;12.57;7.13;;;;;;;-2.96;88.72;93342.50;1710506;83;21212;-83
2020/12/06 04:04:35;;;;;;;15.87;9.17;;;;;;;-3.05;88.82;93336.38;1773295;80;21160;-83
2020/12/06 04:07:03;;;;;;;17.90;10.03;;;;;;;-3.10;89.13;93340.52;1793393;79;21637;-85
2020/12/06 04:09:31;;;;;;;11.10;6.30;;;;;;;-3.11;89.31;93341.63;1751893;79;21162;-83
2020/12/06 04:11:59;;;;;;;26.77;12.83;;;;;;;-3.08;89.48;93344.45;1786588;79;21173;-84
2020/12/06 04:14:28;;;;;;;29.87;16.53;;;;;;;-3.02;89.71;93349.06;1781619;80;21140;-81
2020/12/06 04:16:56;;;;;;;35.90;16.67;;;;;;;-2.98;89.48;93347.34;1743213;82;21088;-84
2020/12/06 04:19:25;;;;;;;8.10;5.90;;;;;;;-2.99;89.35;93347.89;1760120;81;21588;-83
2020/12/06 04:21:53;;;;;;;13.93;8.70;;;;;;;-2.96;89.21;93345.94;1744288;81;21418;-81
2020/12/06 04:24:21;;;;;;;59.07;27.33;;;;;;;-2.92;89.24;93353.30;1694227;81;21630;-82
2020/12/06 04:26:50;;;;;;;15.73;8.30;;;;;;;-2.92;88.95;93353.30;1745182;81;21287;-78
2020/12/06 04:29:18;;;;;;;39.60;17.90;;;;;;;-2.96;88.84;93349.16;1804206;79;21609;-83
2020/12/06 04:31:46;;;;;;;36.63;18.57;;;;;;;-2.95;88.87;93350.71;1789322;80;21189;-83
2020/12/06 04:34:14;;;;;;;59.33;28.40;;;;;;;-2.94;88.83;93358.37;1800693;79;21136;-85
2020/12/06 04:36:42;;;;;;;70.30;31.43;;;;;;;-2.94;88.82;93361.03;1806057;79;21161;-82
2020/12/06 04:39:11;;;;;;;70.03;31.47;;;;;;;-2.92;88.67;93362.62;1806217;78;21201;-81
2020/12/06 04:41:39;;;;;;;66.37;31.70;;;;;;;-2.94;88.45;93367.69;1800587;79;21197;-84
2020/12/06 04:44:07;;;;;;;57.63;28.33;;;;;;;-2.99;88.22;93364.41;1744752;82;21180;-82
2020/12/06 04:46:38;;;;;;;69.57;30.07;;;;;;;-3.04;88.17;93366.67;1782135;80;21197;-82
2020/12/06 04:49:20;;;;;;;54.30;25.87;;;;;;;-3.06;88.12;93371.51;1786711;78;21151;-82
2020/12/06 04:51:49;;;;;;;25.07;14.13;;;;;;;-3.05;88.33;93368.30;1798994;79;21186;-83
2020/12/06 04:54:17;;;;;;;51.20;24.17;;;;;;;-3.05;88.31;93365.64;1755834;81;21647;-84
2020/12/06 04:56:45;;;;;;;33.07;14.83;;;;;;;-3.04;88.57;93365.89;1768407;79;21164;-83
2020/12/06 04:59:13;;;;;;;31.67;15.97;;;;;;;-3.03;88.44;93358.92;1767623;80;21187;-82
2020/12/06 05:01:42;;;;;;;12.97;7.53;;;;;;;-3.07;88.45;93358.53;1777032;80;21669;-82
2020/12/06 05:04:12;;;;;;;17.73;9.63;;;;;;;-3.05;88.71;93358.44;1781658;79;21171;-81
2020/12/06 05:06:41;;;;;;;11.43;7.30;;;;;;;-3.01;88.93;93359.92;1763499;79;21232;-84
2020/12/06 05:09:16;;;;;;;12.67;6.90;;;;;;;-3.02;88.66;93360.48;1789393;79;21191;-83
2020/12/06 05:11:45;;;;;;;7.62;4.75;;;;;;;-3.00;88.80;93356.97;1800763;79;21199;-84
2020/12/06 05:14:14;;;;;;;10.53;6.60;;;;;;;-2.94;89.14;93361.58;1773076;80;21654;-81
2020/12/06 05:16:42;;;;;;;6.67;4.40;;;;;;;-2.94;89.05;93358.92;1749780;80;21185;-82
2020/12/06 05:19:10;;;;;;;7.23;4.37;;;;;;;-2.97;88.70;93354.22;1780278;80;21210;-83
2020/12/06 05:21:41;;;;;;;14.87;9.23;;;;;;;-2.99;88.49;93355.09;1770205;79;21151;-82
2020/12/06 05:24:10;;;;;;;21.70;11.53;;;;;;;-3.02;88.25;93363.14;1777728;80;21277;-84
2020/12/06 05:26:38;;;;;;;15.63;8.10;;;;;;;-3.05;88.17;93358.98;1760342;81;21209;-81
2020/12/06 05:29:06;;;;;;;57.00;28.53;;;;;;;-3.07;88.52;93366.51;1783921;80;21152;-83
2020/12/06 05:31:34;;;;;;;57.47;31.73;;;;;;;-3.06;88.54;93362.75;1804527;79;21012;-83
2020/12/06 05:34:03;;;;;;;68.97;36.53;;;;;;;-3.11;88.14;93365.02;1775671;79;21404;-84
2020/12/06 05:36:31;;;;;;;71.63;39.43;;;;;;;-3.18;87.86;93369.45;1801596;79;21664;-82
2020/12/06 05:38:59;;;;;;;70.83;40.43;;;;;;;-3.25;87.80;93367.80;1811881;78;21167;-81
2020/12/06 05:41:27;;;;;;;70.93;36.30;;;;;;;-3.31;87.69;93370.37;1802449;78;21140;-85
2020/12/06 05:43:55;;;;;;;68.87;35.93;;;;;;;-3.32;87.79;93370.67;1779238;77;21136;-83
2020/12/06 05:46:23;;;;;;;127.30;50.50;;;;;;;-3.31;87.81;93366.91;1744412;81;21764;-84
2020/12/06 05:48:51;;;;;;;79.03;37.40;;;;;;;-3.31;87.87;93368.24;1772406;80;21193;-81
2020/12/06 05:51:20;;;;;;;78.93;37.90;;;;;;;-3.26;88.06;93372.11;1761165;81;21337;-82
2020/12/06 05:53:48;;;;;;;44.00;23.47;;;;;;;-3.21;87.86;93367.41;1749708;82;21640;-84
2020/12/06 05:56:20;;;;;;;48.53;23.07;;;;;;;-3.18;87.68;93360.70;1745567;81;21177;-84
2020/12/06 05:58:49;;;;;;;45.33;25.00;;;;;;;-3.21;87.73;93363.97;1777430;79;21166;-84
2020/12/06 06:01:21;;;;;;;10.30;6.73;;;;;;;-3.21;87.93;93362.09;1805688;79;22075;-84
2020/12/06 06:03:53;;;;;;;38.43;21.73;;;;;;;-3.17;87.97;93359.05;1760112;80;21162;-84
2020/12/06 06:06:39;;;;;;;39.53;23.83;;;;;;;-3.13;87.93;93358.43;1755853;81;21164;-85
2020/12/06 06:09:07;;;;;;;31.57;19.33;;;;;;;-3.13;87.59;93363.75;1768453;81;21110;-84
2020/12/06 06:11:36;;;;;;;21.83;12.63;;;;;;;-3.20;87.39;93366.34;1771635;81;22136;-84
2020/12/06 06:14:11;;;;;;;57.00;29.40;;;;;;;-3.24;87.51;93366.70;1739268;81;21378;-83
2020/12/06 06:16:39;;;;;;;55.52;31.75;;;;;;;-3.24;87.64;93371.23;1780142;80;21179;-85
2020/12/06 06:19:07;;;;;;;52.03;26.33;;;;;;;-3.27;87.49;93371.33;1758577;80;21160;-84
2020/12/06 06:21:41;;;;;;;62.87;34.83;;;;;;;-3.30;87.53;93379.92;1781901;79;21157;-83
2020/12/06 06:24:11;;;;;;;66.07;35.07;;;;;;;-3.31;87.47;93374.38;1751794;81;21174;-84
2020/12/06 06:26:42;;;;;;;78.70;42.47;;;;;;;-3.31;87.41;93373.56;1773312;80;21370;-84
2020/12/06 06:29:15;;;;;;;84.30;43.70;;;;;;;-3.35;87.13;93372.61;1771089;80;21167;-84
2020/12/06 06:31:48;;;;;;;87.37;44.63;;;;;;;-3.39;86.95;93379.64;1755608;81;21191;-83
2020/12/06 06:34:16;;;;;;;84.43;45.53;;;;;;;-3.43;86.77;93380.25;1734448;80;21214;-84
2020/12/06 06:36:45;;;;;;;85.97;43.80;;;;;;;-3.45;86.61;93379.02;1758492;81;21124;-83
2020/12/06 06:39:16;;;;;;;71.47;35.73;;;;;;;-3.49;86.79;93380.73;1798554;79;21329;-83
2020/12/06 06:42:06;;;;;;;60.47;33.33;;;;;;;-3.47;87.08;93381.97;1752708;81;21603;-83
2020/12/06 06:44:32;;;;;;;62.17;34.53;;;;;;;-3.44;87.46;93380.58;1755401;79;21215;-84
2020/12/06 06:47:03;;;;;;;67.33;35.30;;;;;;;-3.39;87.68;93380.42;1728782;81;21542;-83
2020/12/06 06:49:34;;;;;;;52.60;22.60;;;;;;;-3.33;87.73;93377.09;1756124;81;21184;-83
2020/12/06 06:52:03;;;;;;;70.27;35.47;;;;;;;-3.24;87.70;93376.55;1754861;80;21209;-83
2020/12/06 06:54:32;;;;;;;110.13;59.50;;;;;;;-3.19;87.76;93378.53;1767447;80;21687;-84
2020/12/06 06:57:00;;;;;;;94.10;48.70;;;;;;;-3.12;87.43;93375.95;1783111;79;21152;-84
2020/12/06 06:59:44;;;;;;;80.87;42.70;;;;;;;-3.09;87.20;93379.33;1764016;80;21173;-84
2020/12/06 07:02:42;;;;;;;70.93;36.77;;;;;;;-3.08;87.42;93374.27;1692644;81;21194;-83
2020/12/06 07:05:21;;;;;;;35.90;19.60;;;;;;;-3.01;87.79;93367.39;1766716;79;22606;-83
2020/12/06 07:07:50;;;;;;;30.63;14.57;;;;;;;-2.88;88.17;93367.00;1778549;78;21292;-86
2020/12/06 07:10:22;;;;;;;25.77;11.33;;;;;;;-2.73;88.35;93373.74;1760712;80;21165;-85
2020/12/06 07:12:56;;;;;;;27.97;15.23;;;;;;;-2.63;88.33;93370.78;1805934;79;21289;-83
2020/12/06 07:15:25;;;;;;;36.17;13.93;;;;;;;-2.53;88.37;93371.77;1823520;78;21159;-84
2020/12/06 07:17:54;;;;;;;37.00;19.60;;;;;;;-2.43;88.20;93375.23;1788953;78;21220;-83
2020/12/06 07:20:24;;;;;;;29.57;15.43;;;;;;;-2.40;87.97;93368.73;1729641;82;21045;-82
2020/12/06 07:22:52;;;;;;;28.00;16.73;;;;;;;-2.36;87.76;93376.31;1722291;79;21400;-83
2020/12/06 07:25:21;;;;;;;39.53;20.37;;;;;;;-2.37;87.37;93365.44;1774147;80;21195;-83
2020/12/06 07:27:49;;;;;;;27.63;16.63;;;;;;;-2.39;87.32;93367.63;1780674;80;21734;-83
2020/12/06 07:32:49;;;;;;;32.40;17.23;;;;;;;-2.27;87.59;93369.09;1886406;76;22399;-76
2020/12/06 07:35:23;;;;;;;23.57;13.10;;;;;;;-2.23;87.71;93374.57;1743959;80;21168;-84
2020/12/06 07:37:48;;;;;;;24.33;13.73;;;;;;;-2.11;87.99;93378.69;1759464;80;21279;-80
2020/12/06 07:40:16;;;;;;;36.47;18.37;;;;;;;-1.92;88.37;93374.34;1678756;83;21627;-78
2020/12/06 07:42:47;;;;;;;31.77;18.77;;;;;;;-1.68;88.09;93379.70;1731067;81;21803;-77
2020/12/06 07:45:15;;;;;;;32.95;20.52;;;;;;;-1.28;88.61;93377.48;1755223;81;21246;-81
2020/12/06 07:47:43;;;;;;;59.70;36.33;;;;;;;-0.76;87.62;93375.29;1806545;76;21456;-78
2020/12/06 07:50:11;;;;;;;75.50;46.60;;;;;;;-0.21;86.15;93372.69;1855526;76;21209;-80
2020/12/06 07:52:40;;;;;;;63.83;42.75;;;;;;;0.28;84.11;93375.51;1821368;78;21627;-77
2020/12/06 07:55:10;;;;;;;63.78;38.78;;;;;;;0.76;82.46;93380.15;1811184;78;21180;-80
2020/12/06 07:57:54;;;;;;;55.78;33.65;;;;;;;1.12;80.28;93373.20;1786357;80;21620;-79
2020/12/06 08:00:27;;;;;;;50.78;30.55;;;;;;;1.37;78.95;93373.97;1780437;80;21211;-77
2020/12/06 08:02:59;;;;;;;51.77;28.38;;;;;;;1.55;77.67;93365.89;1762842;81;22531;-79
2020/12/06 08:05:31;;;;;;;51.65;30.65;;;;;;;1.63;76.91;93377.03;1803842;78;22035;-76
2020/12/06 08:08:07;;;;;;;44.18;28.05;;;;;;;1.58;76.43;93362.53;1810154;79;21539;-79
2020/12/06 08:10:35;;;;;;;44.65;26.60;;;;;;;1.45;76.85;93369.81;1768378;79;21176;-76
2020/12/06 08:13:05;;;;;;;37.95;22.32;;;;;;;1.28;77.19;93369.27;1786929;77;21641;-77
2020/12/06 08:15:35;;;;;;;111.35;70.85;;;;;;;1.09;78.00;93371.20;1766707;78;22474;-79
2020/12/06 08:18:12;;;;;;;144.70;91.95;;;;;;;0.93;78.38;93367.86;1792908;79;21213;-83
2020/12/06 08:20:40;;;;;;;118.65;77.35;;;;;;;0.78;77.68;93376.56;1773221;77;21188;-79
2020/12/06 08:23:08;;;;;;;101.12;64.58;;;;;;;0.68;77.62;93366.32;1786537;79;21202;-79
2020/12/06 08:25:48;;;;;;;72.37;44.58;;;;;;;0.61;78.13;93370.10;1769716;78;21182;-77
2020/12/06 08:28:20;;;;;;;56.25;34.67;;;;;;;0.56;78.60;93373.75;1802727;76;21495;-84
2020/12/06 08:30:48;;;;;;;36.58;22.20;;;;;;;0.44;79.47;93369.17;1796935;78;21218;-79
2020/12/06 08:33:25;;;;;;;40.20;23.55;;;;;;;0.37;80.38;93368.16;1791284;80;21502;-78
2020/12/06 08:35:56;;;;;;;43.92;25.65;;;;;;;0.28;81.11;93366.92;1851994;76;21183;-76
2020/12/06 08:38:29;;;;;;;41.53;23.90;;;;;;;0.23;81.65;93374.61;1774035;80;21127;-77
2020/12/06 08:41:08;;;;;;;43.92;25.43;;;;;;;0.20;82.11;93375.27;1758031;81;21375;-75
2020/12/06 08:43:48;;;;;;;35.20;19.48;;;;;;;0.17;82.54;93376.48;1782523;78;21476;-77
2020/12/06 08:46:23;;;;;;;45.05;23.12;;;;;;;0.15;83.01;93365.32;1818119;78;21516;-77
2020/12/06 08:48:54;;;;;;;50.92;28.95;;;;;;;0.15;83.36;93354.09;1760817;80;21219;-77
2020/12/06 08:51:33;;;;;;;57.88;29.63;;;;;;;0.15;83.62;93356.77;1754009;81;21473;-79
2020/12/06 08:54:07;;;;;;;52.58;29.05;;;;;;;0.14;83.60;93351.73;1755338;80;21228;-81
2020/12/06 08:56:37;;;;;;;51.08;28.70;;;;;;;0.13;83.82;93354.19;1745995;81;21210;-79
2020/12/06 08:59:09;;;;;;;40.08;23.12;;;;;;;0.11;84.05;93349.16;1755894;80;21518;-81
2020/12/06 09:01:52;;;;;;;37.88;21.55;;;;;;;0.13;84.21;93346.94;1762838;80;21163;-80
2020/12/06 09:04:20;;;;;;;42.60;22.27;;;;;;;0.13;84.38;93349.62;1753324;80;21229;-78
2020/12/06 09:06:50;;;;;;;43.63;25.88;;;;;;;0.13;84.42;93343.49;1781474;80;21192;-78
2020/12/06 09:09:18;;;;;;;49.70;27.90;;;;;;;0.11;84.45;93341.69;1755934;80;21178;-76
2020/12/06 09:11:52;;;;;;;49.33;25.50;;;;;;;0.10;84.69;93336.91;1820134;78;21721;-77
2020/12/06 09:14:21;;;;;;;44.42;24.80;;;;;;;0.13;84.97;93334.91;1729487;81;21567;-78
2020/12/06 09:16:49;;;;;;;38.40;22.27;;;;;;;0.17;85.15;93330.46;1789601;79;21164;-76
2020/12/06 09:19:17;;;;;;;41.35;23.42;;;;;;;0.19;85.24;93330.14;1748499;80;22383;-81
2020/12/06 09:21:46;;;;;;;31.68;18.98;;;;;;;0.20;85.35;93337.05;1727498;82;21990;-78
2020/12/06 09:24:14;;;;;;;39.83;23.35;;;;;;;0.22;85.50;93332.91;1740319;82;21724;-78
2020/12/06 09:26:42;;;;;;;41.18;23.57;;;;;;;0.24;85.58;93324.02;1740511;80;21107;-78
2020/12/06 09:29:11;;;;;;;37.10;20.85;;;;;;;0.26;85.57;93320.22;1795211;78;21170;-79
2020/12/06 09:31:39;;;;;;;37.35;21.12;;;;;;;0.24;85.70;93311.98;1830003;77;21198;-77
2020/12/06 09:34:07;;;;;;;38.95;23.00;;;;;;;0.27;85.88;93315.11;1829682;77;21193;-77
2020/12/06 09:36:41;;;;;;;29.57;17.10;;;;;;;0.26;85.99;93305.51;1830548;77;21115;-77
2020/12/06 09:39:10;;;;;;;31.30;19.60;;;;;;;0.27;86.14;93316.45;1810138;77;21179;-79
2020/12/06 09:41:45;;;;;;;25.08;14.98;;;;;;;0.23;86.27;93314.44;1768623;79;21224;-79
2020/12/06 09:44:13;;;;;;;35.20;20.00;;;;;;;0.23;86.54;93312.32;1720042;80;22121;-79
2020/12/06 09:46:41;;;;;;;29.57;16.55;;;;;;;0.23;86.76;93317.11;1766009;80;21557;-78
2020/12/06 09:49:11;;;;;;;28.20;16.90;;;;;;;0.26;86.82;93308.18;1838680;77;21524;-80
2020/12/06 09:51:42;;;;;;;30.17;17.80;;;;;;;0.27;86.92;93309.20;1781026;79;21208;-78
2020/12/06 09:54:11;;;;;;;30.35;18.70;;;;;;;0.28;86.89;93310.76;1777264;79;21476;-77
2020/12/06 09:56:39;;;;;;;33.92;20.70;;;;;;;0.30;86.97;93304.53;1776120;80;21454;-79
2020/12/06 09:59:08;;;;;;;33.67;19.25;;;;;;;0.33;87.03;93301.17;1777290;80;21185;-79
2020/12/06 10:01:36;;;;;;;33.00;19.15;;;;;;;0.35;86.93;93297.61;1777932;80;21299;-75
2020/12/06 10:04:05;;;;;;;27.32;16.10;;;;;;;0.35;86.98;93287.48;1782903;79;21188;-76
2020/12/06 10:06:33;;;;;;;27.35;17.07;;;;;;;0.36;87.14;93286.36;1777825;80;21666;-78
2020/12/06 10:09:03;;;;;;;29.00;17.92;;;;;;;0.37;87.12;93277.98;1781305;80;22676;-79
2020/12/06 10:11:31;;;;;;;25.57;15.78;;;;;;;0.39;87.13;93268.31;1781463;79;21196;-77
2020/12/06 10:14:00;;;;;;;26.10;16.12;;;;;;;0.40;87.22;93261.27;1777030;79;22009;-79
2020/12/06 10:16:28;;;;;;;26.02;16.95;;;;;;;0.41;87.22;93262.05;1766445;80;21659;-78
2020/12/06 10:18:56;;;;;;;28.38;16.82;;;;;;;0.43;87.38;93259.83;1742735;81;21190;-80
2020/12/06 10:21:25;;;;;;;30.27;17.95;;;;;;;0.44;87.52;93256.03;1770991;80;21224;-79
2020/12/06 10:23:55;;;;;;;27.80;17.27;;;;;;;0.45;87.67;93255.72;1774795;79;21233;-80
2020/12/06 10:26:23;;;;;;;26.40;16.37;;;;;;;0.48;87.71;93256.92;1776128;79;21154;-78
2020/12/06 10:28:51;;;;;;;30.37;18.65;;;;;;;0.48;87.65;93261.71;1775154;79;21602;-78
2020/12/06 10:31:20;;;;;;;29.15;18.67;;;;;;;0.47;87.68;93260.16;1737516;82;21623;-78
2020/12/06 10:33:50;;;;;;;34.13;20.50;;;;;;;0.47;87.69;93262.83;1768009;79;21279;-78
2020/12/06 10:36:20;;;;;;;31.90;19.80;;;;;;;0.48;87.84;93267.06;1790292;77;21205;-84
2020/12/06 10:38:48;;;;;;;30.05;18.65;;;;;;;0.50;87.90;93261.95;1753880;80;21477;-83
2020/12/06 10:41:16;;;;;;;32.65;19.77;;;;;;;0.53;87.98;93254.57;1791337;78;21693;-84
2020/12/06 10:43:44;;;;;;;29.35;19.48;;;;;;;0.56;87.98;93259.26;1780102;79;22023;-80
2020/12/06 10:46:13;;;;;;;33.15;19.95;;;;;;;0.57;88.06;93253.59;1773891;80;22003;-79
2020/12/06 10:48:41;;;;;;;30.37;20.20;;;;;;;0.62;88.10;93252.58;1823016;77;21199;-82
2020/12/06 10:51:09;;;;;;;30.92;19.85;;;;;;;0.67;88.02;93249.09;1815151;78;21154;-78
2020/12/06 10:53:37;;;;;;;23.57;16.07;;;;;;;0.71;88.01;93247.87;1785979;78;21588;-79
2020/12/06 10:56:11;;;;;;;34.78;21.50;;;;;;;0.73;87.92;93242.97;1731781;80;21173;-77
2020/12/06 10:58:40;;;;;;;32.30;20.95;;;;;;;0.71;87.84;93242.52;1810524;78;21398;-79
2020/12/06 11:01:09;;;;;;;36.05;21.52;;;;;;;0.68;87.87;93239.20;1766034;81;21217;-77
2020/12/06 11:03:38;;;;;;;33.35;20.82;;;;;;;0.68;88.01;93235.19;1752218;80;21147;-82
2020/12/06 11:06:06;;;;;;;32.35;20.97;;;;;;;0.67;87.99;93237.61;1743963;81;21199;-82
2020/12/06 11:08:34;;;;;;;33.02;20.70;;;;;;;0.68;88.26;93234.62;1765747;78;21140;-78
2020/12/06 11:11:03;;;;;;;34.25;21.07;;;;;;;0.73;88.31;93230.92;1766387;79;21780;-80
2020/12/06 11:13:31;;;;;;;29.32;18.80;;;;;;;0.77;88.16;93232.37;1747406;82;21428;-81
2020/12/06 11:15:59;;;;;;;26.07;16.62;;;;;;;0.76;88.04;93235.61;1748859;80;21171;-81
2020/12/06 11:18:29;;;;;;;27.70;17.73;;;;;;;0.75;88.06;93230.58;1746583;81;21180;-79
2020/12/06 11:20:58;;;;;;;29.80;16.67;;;;;;;0.75;88.21;93223.32;1696195;83;21235;-79
2020/12/06 11:23:26;;;;;;;31.40;18.60;;;;;;;0.77;88.23;93223.00;1709635;82;22078;-83
2020/12/06 11:25:55;;;;;;;27.25;17.48;;;;;;;0.80;88.16;93214.30;1779280;80;21546;-81
2020/12/06 11:28:23;;;;;;;29.63;18.48;;;;;;;0.81;88.14;93215.29;1785566;80;21187;-79
2020/12/06 11:30:52;;;;;;;34.78;20.32;;;;;;;0.85;88.06;93211.38;1767892;81;21462;-79
2020/12/06 11:33:20;;;;;;;33.95;21.15;;;;;;;0.85;87.93;93209.48;1762894;79;22171;-78
2020/12/06 11:35:48;;;;;;;35.80;20.48;;;;;;;0.86;87.94;93206.23;1778307;79;21957;-81